Aviation Digital Data Service (ADDS)

Output produced by METARs form (0034 UTC 28 March 2017)
found at http://aviationweather.gov/adds/metars/
 
KART 272333Z 2800/2824 18004KT P6SM OVC012 
     FM280300 18004KT 4SM BR OVC015 
     FM280600 19004KT 3SM BR OVC007 
     FM280800 VRB03KT 2SM BR OVC007 
     FM281000 VRB04KT 2SM BR VCSH OVC007 
     FM281700 36005KT P6SM OVC007 
     FM281900 36006KT P6SM OVC012